createdAt,value
2023-04-02T00:01:37.007Z,8.88
2023-04-02T00:05:50.285Z,5.82
2023-04-02T00:13:54.051Z,6.00
2023-04-02T00:17:56.695Z,3.63
2023-04-02T00:21:59.960Z,3.42
2023-04-02T00:26:01.643Z,4.95
2023-04-02T00:30:04.234Z,5.90
2023-04-02T00:34:08.808Z,2.88
2023-04-02T00:38:31.050Z,4.00
2023-04-02T00:42:35.145Z,3.13
2023-04-02T00:46:49.397Z,2.60
2023-04-02T00:50:52.939Z,1.65
2023-04-02T00:55:21.482Z,2.70
2023-04-02T00:59:28.248Z,2.63
2023-04-02T01:03:37.303Z,3.20
2023-04-02T01:08:06.123Z,4.70
2023-04-02T01:12:39.270Z,4.32
2023-04-02T01:16:57.177Z,4.43
2023-04-02T01:21:34.076Z,4.00
2023-04-02T01:25:38.805Z,4.80
2023-04-02T01:29:51.384Z,4.78
2023-04-02T01:33:53.526Z,2.60
2023-04-02T01:38:10.485Z,4.35
2023-04-02T01:42:52.025Z,3.65
2023-04-02T01:46:53.794Z,5.22
2023-04-02T01:50:57.629Z,7.13
2023-04-02T01:54:59.556Z,10.73
2023-04-02T01:59:03.707Z,21.17
2023-04-02T02:03:06.250Z,13.27
2023-04-02T02:07:18.414Z,17.73
2023-04-02T02:11:27.016Z,13.27
2023-04-02T02:15:35.945Z,9.00
2023-04-02T02:19:46.485Z,8.73
2023-04-02T02:23:48.629Z,5.78
2023-04-02T02:27:57.807Z,7.05
2023-04-02T02:32:01.712Z,6.43
2023-04-02T02:36:06.445Z,6.50
2023-04-02T02:40:22.555Z,4.90
2023-04-02T02:44:39.705Z,4.40
2023-04-02T02:48:43.496Z,4.90
2023-04-02T02:52:50.775Z,6.57
2023-04-02T02:56:58.109Z,6.38
2023-04-02T03:01:00.396Z,8.63
2023-04-02T03:05:03.010Z,5.07
2023-04-02T03:09:19.323Z,6.38
2023-04-02T03:13:29.272Z,4.57
2023-04-02T03:17:36.166Z,5.50
2023-04-02T03:21:49.932Z,5.70
2023-04-02T03:26:04.380Z,5.75
2023-04-02T03:30:17.977Z,6.03
2023-04-02T03:34:39.811Z,5.35
2023-04-02T03:38:56.704Z,4.97
2023-04-02T03:43:12.305Z,4.25
2023-04-02T03:47:37.847Z,4.32
2023-04-02T03:51:55.415Z,4.07
2023-04-02T03:56:01.222Z,3.20
2023-04-02T04:00:06.396Z,4.68
2023-04-02T04:04:16.156Z,3.28
2023-04-02T04:08:23.449Z,5.85
2023-04-02T04:12:33.697Z,3.03
2023-04-02T04:16:53.503Z,4.13
2023-04-02T04:21:01.136Z,3.63
2023-04-02T04:25:17.725Z,4.38
2023-04-02T04:29:56.049Z,5.80
2023-04-02T04:34:05.177Z,5.95
2023-04-02T04:38:15.677Z,6.43
2023-04-02T04:42:28.931Z,5.65
2023-04-02T04:46:49.463Z,7.40
2023-04-02T04:50:57.396Z,8.45
2023-04-02T04:54:59.223Z,7.45
2023-04-02T04:59:13.572Z,5.65
2023-04-02T05:03:34.388Z,5.22
2023-04-02T05:07:45.866Z,5.25
2023-04-02T05:12:13.232Z,6.53
2023-04-02T05:16:24.102Z,5.45
2023-04-02T05:20:40.311Z,6.82
2023-04-02T05:24:52.170Z,5.68
2023-04-02T05:29:08.319Z,6.15
2023-04-02T05:33:30.279Z,5.38
2023-04-02T05:37:32.782Z,4.97
2023-04-02T05:41:47.418Z,6.32
2023-04-02T05:45:55.213Z,7.03
2023-04-02T05:50:09.917Z,7.18
2023-04-02T05:54:25.292Z,3.80
2023-04-02T05:58:45.629Z,7.45
2023-04-02T06:03:07.231Z,7.13
2023-04-02T06:07:13.586Z,8.13
2023-04-02T06:11:27.426Z,8.07
2023-04-02T06:15:30.688Z,6.45
2023-04-02T06:19:37.329Z,5.50
2023-04-02T06:24:02.301Z,5.82
2023-04-02T06:28:07.167Z,6.78
2023-04-02T06:32:13.911Z,5.63
2023-04-02T06:36:15.630Z,5.47
2023-04-02T06:40:23.175Z,7.55
2023-04-02T06:44:28.076Z,7.90
2023-04-02T06:48:31.440Z,6.28
2023-04-02T06:53:01.349Z,7.68
2023-04-02T06:57:07.195Z,6.40
2023-04-02T07:01:21.925Z,7.97
2023-04-02T07:05:23.896Z,7.15
2023-04-02T07:09:26.901Z,7.90
2023-04-02T07:13:28.632Z,5.85
2023-04-02T07:17:30.680Z,6.00
2023-04-02T07:21:32.748Z,7.97
2023-04-02T07:25:34.691Z,6.30
2023-04-02T07:29:42.373Z,7.27
2023-04-02T07:33:44.762Z,5.22
2023-04-02T07:37:46.549Z,4.93
2023-04-02T07:41:53.268Z,5.25
2023-04-02T07:45:54.984Z,4.90
2023-04-02T07:49:56.711Z,3.67
2023-04-02T07:53:58.375Z,4.57
2023-04-02T07:58:00.186Z,5.25
2023-04-02T08:02:02.422Z,6.20
2023-04-02T08:06:04.325Z,7.70
2023-04-02T08:10:07.412Z,7.70
2023-04-02T08:14:10.049Z,6.40
2023-04-02T08:18:11.905Z,8.55
2023-04-02T08:22:13.900Z,7.15
2023-04-02T08:26:18.328Z,7.10
2023-04-02T08:30:20.718Z,8.10
2023-04-02T08:34:22.501Z,6.63
2023-04-02T08:38:25.291Z,7.43
2023-04-02T08:42:44.053Z,8.63
2023-04-02T08:46:54.244Z,10.95
2023-04-02T08:50:57.149Z,9.70
2023-04-02T08:55:00.486Z,9.15
2023-04-02T08:59:07.560Z,10.32
2023-04-02T09:03:19.572Z,8.43
2023-04-02T09:07:21.813Z,9.20
2023-04-02T09:11:52.424Z,10.77
2023-04-02T09:16:01.399Z,11.82
2023-04-02T09:20:22.557Z,10.30
2023-04-02T09:24:24.316Z,11.10
2023-04-02T09:28:27.482Z,11.32
2023-04-02T09:36:39.411Z,9.70
2023-04-02T09:40:59.697Z,12.35
2023-04-02T09:45:24.655Z,10.00
2023-04-02T09:49:30.468Z,14.18
2023-04-02T09:53:40.482Z,13.23
2023-04-02T09:57:44.189Z,11.82
2023-04-02T10:01:55.041Z,12.03
2023-04-02T10:06:16.286Z,13.73
2023-04-02T10:10:25.272Z,13.55
2023-04-02T10:14:35.636Z,13.35
2023-04-02T10:18:41.725Z,13.98
2023-04-02T10:22:44.946Z,14.60
2023-04-02T10:31:27.512Z,12.90
2023-04-02T10:35:32.228Z,13.48
2023-04-02T10:39:59.949Z,14.90
2023-04-02T10:44:16.638Z,12.43
2023-04-02T10:48:37.771Z,12.70
2023-04-02T10:52:46.417Z,12.43
2023-04-02T10:56:53.122Z,11.52
2023-04-02T11:01:26.938Z,12.25
2023-04-02T11:05:37.197Z,13.35
2023-04-02T11:09:43.818Z,14.30
2023-04-02T11:13:55.232Z,12.05
2023-04-02T11:17:57.236Z,12.65
2023-04-02T11:22:16.753Z,9.93
2023-04-02T11:26:39.221Z,10.55
2023-04-02T11:30:42.711Z,12.25
2023-04-02T11:34:44.400Z,12.18
2023-04-02T11:38:46.456Z,12.05
2023-04-02T11:42:52.666Z,15.95
2023-04-02T11:47:32.493Z,13.57
2023-04-02T11:51:34.201Z,12.55
2023-04-02T11:55:38.298Z,12.77
2023-04-02T12:00:08.559Z,12.43
2023-04-02T12:04:36.872Z,14.02
2023-04-02T12:08:57.886Z,17.02
2023-04-02T12:13:00.313Z,12.32
2023-04-02T12:17:36.114Z,12.75
2023-04-02T12:21:38.388Z,12.23
2023-04-02T12:25:54.562Z,12.33
2023-04-02T12:30:11.794Z,10.15
2023-04-02T12:34:18.634Z,12.30
2023-04-02T12:38:27.937Z,11.55
2023-04-02T12:42:37.399Z,11.48
2023-04-02T12:46:39.820Z,9.93
2023-04-02T12:50:42.057Z,10.67
2023-04-02T12:54:53.927Z,11.37
2023-04-02T12:58:57.747Z,11.48
2023-04-02T13:03:20.515Z,10.93
2023-04-02T13:07:27.653Z,10.90
2023-04-02T13:11:40.922Z,11.00
2023-04-02T13:19:45.396Z,11.87
2023-04-02T13:23:47.380Z,10.70
2023-04-02T13:27:49.089Z,11.25
2023-04-02T13:31:53.536Z,11.82
2023-04-02T13:35:55.495Z,10.85
2023-04-02T13:39:57.187Z,11.23
2023-04-02T13:44:01.647Z,10.48
2023-04-02T13:48:04.327Z,10.30
2023-04-02T13:52:14.487Z,11.18
2023-04-02T13:56:16.483Z,9.90
2023-04-02T14:00:19.709Z,9.82
2023-04-02T14:08:34.519Z,11.82
2023-04-02T14:12:39.356Z,12.52
2023-04-02T14:17:09.601Z,10.82
2023-04-02T14:21:33.112Z,10.30
2023-04-02T14:30:06.817Z,10.18
2023-04-02T14:34:46.625Z,9.15
2023-04-02T14:39:04.180Z,8.40
2023-04-02T14:43:08.491Z,8.40
2023-04-02T14:47:20.434Z,8.75
2023-04-02T14:51:40.776Z,7.75
2023-04-02T14:55:49.691Z,8.88
2023-04-02T15:00:09.716Z,9.02
2023-04-02T15:04:17.313Z,10.23
2023-04-02T15:08:37.208Z,10.68
2023-04-02T15:12:41.154Z,9.77
2023-04-02T15:16:44.815Z,7.50
2023-04-02T15:21:29.994Z,8.93
2023-04-02T15:25:41.935Z,8.90
2023-04-02T15:29:43.774Z,13.77
2023-04-02T15:33:45.918Z,8.73
2023-04-02T15:38:11.540Z,8.18
2023-04-02T15:42:34.612Z,7.03
2023-04-02T15:47:13.063Z,11.55
2023-04-02T15:51:29.801Z,9.65
2023-04-02T15:55:45.396Z,9.18
2023-04-02T16:00:11.281Z,7.85
2023-04-02T16:04:32.083Z,6.43
2023-04-02T16:08:46.889Z,6.25
2023-04-02T16:12:51.467Z,5.78
2023-04-02T16:16:58.790Z,5.85
2023-04-02T16:21:03.862Z,5.45
2023-04-02T16:25:19.446Z,4.80
2023-04-02T16:29:23.866Z,4.70
2023-04-02T16:33:58.708Z,5.32
2023-04-02T16:38:30.239Z,4.25
2023-04-02T16:42:58.338Z,4.63
2023-04-02T16:47:19.959Z,5.65
2023-04-02T16:51:46.409Z,5.70
2023-04-02T16:56:33.401Z,5.15
2023-04-02T17:01:11.589Z,6.88
2023-04-02T17:05:19.245Z,8.35
2023-04-02T17:09:28.758Z,7.43
2023-04-02T17:13:50.408Z,11.70
2023-04-02T17:17:56.653Z,9.50
2023-04-02T17:22:04.332Z,6.55
2023-04-02T17:26:08.993Z,9.57
2023-04-02T17:30:24.174Z,17.77
2023-04-02T17:34:25.974Z,10.25
2023-04-02T17:38:50.990Z,4.40
2023-04-02T17:43:14.494Z,5.43
2023-04-02T17:51:30.470Z,4.30
2023-04-02T17:56:06.275Z,5.45
2023-04-02T18:00:35.641Z,5.18
2023-04-02T18:04:47.813Z,4.75
2023-04-02T18:09:12.055Z,5.53
2023-04-02T18:13:22.870Z,6.25
2023-04-02T18:17:44.368Z,4.75
2023-04-02T18:21:59.544Z,4.00
2023-04-02T18:26:19.479Z,3.45
2023-04-02T18:30:46.920Z,7.38
2023-04-02T18:35:05.683Z,8.70
2023-04-02T18:39:28.453Z,4.60
2023-04-02T18:43:41.905Z,4.65
2023-04-02T18:48:22.621Z,3.65
2023-04-02T18:52:24.921Z,4.40
2023-04-02T18:56:27.447Z,3.30
2023-04-02T19:00:50.118Z,3.05
2023-04-02T19:05:25.213Z,3.80
2023-04-02T19:09:33.693Z,4.03
2023-04-02T19:13:35.624Z,5.28
2023-04-02T19:17:41.749Z,5.68
2023-04-02T19:22:07.940Z,7.57
2023-04-02T19:26:16.010Z,6.03
2023-04-02T19:30:29.939Z,5.63
2023-04-02T19:35:07.777Z,5.82
2023-04-02T19:39:28.073Z,4.35
2023-04-02T19:43:30.509Z,6.43
2023-04-02T19:47:32.278Z,3.97
2023-04-02T19:51:34.058Z,4.65
2023-04-02T19:55:36.019Z,3.70
2023-04-02T19:59:38.033Z,3.17
2023-04-02T20:03:39.807Z,4.78
2023-04-02T20:07:41.639Z,3.60
2023-04-02T20:11:43.434Z,4.90
2023-04-02T20:15:45.422Z,3.70
2023-04-02T20:19:47.122Z,4.20
2023-04-02T20:23:53.286Z,4.30
2023-04-02T20:27:54.996Z,6.13
2023-04-02T20:31:56.879Z,14.63
2023-04-02T20:36:05.523Z,4.57
2023-04-02T20:40:08.253Z,3.15
2023-04-02T20:44:10.438Z,3.55
2023-04-02T20:48:13.094Z,4.00
2023-04-02T20:52:14.779Z,4.97
2023-04-02T20:56:18.990Z,4.43
2023-04-02T21:00:21.101Z,3.50
2023-04-02T21:04:22.839Z,3.33
2023-04-02T21:08:24.934Z,6.20
2023-04-02T21:12:26.691Z,7.72
2023-04-02T21:16:31.867Z,3.50
2023-04-02T21:20:33.837Z,3.95
2023-04-02T21:24:35.545Z,3.15
2023-04-02T21:28:37.194Z,3.10
2023-04-02T21:32:38.913Z,3.08
2023-04-02T21:36:43.100Z,2.85
2023-04-02T21:40:44.776Z,3.10
2023-04-02T21:44:46.535Z,2.40
2023-04-02T21:48:49.649Z,2.50
2023-04-02T21:56:53.371Z,2.35
2023-04-02T22:00:55.441Z,2.17
2023-04-02T22:04:57.172Z,2.20
2023-04-02T22:09:04.995Z,2.92
2023-04-02T22:13:06.641Z,2.10
2023-04-02T22:17:08.406Z,2.58
2023-04-02T22:21:11.431Z,2.40
2023-04-02T22:25:13.151Z,2.38
2023-04-02T22:29:15.673Z,2.40
2023-04-02T22:33:17.287Z,2.13
2023-04-02T22:37:18.898Z,2.33
2023-04-02T22:41:27.617Z,2.15
2023-04-02T22:45:29.283Z,2.20
2023-04-02T22:49:31.843Z,2.05
2023-04-02T22:53:34.072Z,2.38
2023-04-02T22:57:36.019Z,2.17
2023-04-02T23:01:37.781Z,2.05
2023-04-02T23:05:39.708Z,2.67
2023-04-02T23:09:41.439Z,1.95
2023-04-02T23:13:43.722Z,2.25
2023-04-02T23:17:45.562Z,2.03
2023-04-02T23:21:47.254Z,2.42
2023-04-02T23:25:49.022Z,1.80
2023-04-02T23:29:51.724Z,2.30
2023-04-02T23:33:53.596Z,2.05
2023-04-02T23:37:55.274Z,2.05
2023-04-02T23:41:58.932Z,1.90
2023-04-02T23:46:00.573Z,2.25
2023-04-02T23:50:02.171Z,2.10
2023-04-02T23:54:03.972Z,1.92
2023-04-02T23:58:05.696Z,2.13
